createdAt,value
2023-03-24T00:02:08.031Z,10.8
2023-03-24T00:04:56.266Z,10.8
2023-03-24T00:07:44.232Z,10.8
2023-03-24T00:10:32.187Z,10.9
2023-03-24T00:13:20.029Z,10.9
2023-03-24T00:16:08.013Z,10.9
2023-03-24T00:18:56.109Z,10.9
2023-03-24T00:21:44.035Z,11
2023-03-24T00:24:32.102Z,11
2023-03-24T00:27:19.984Z,11
2023-03-24T00:30:07.896Z,11
2023-03-24T00:32:55.954Z,11
2023-03-24T00:35:43.938Z,11
2023-03-24T00:38:32.064Z,11
2023-03-24T00:41:20.333Z,11.1
2023-03-24T00:44:08.512Z,11.1
2023-03-24T00:46:56.702Z,11.1
2023-03-24T00:49:44.702Z,11.1
2023-03-24T00:52:32.670Z,11.1
2023-03-24T00:55:20.593Z,11.1
2023-03-24T00:58:08.571Z,11.1
2023-03-24T01:00:56.564Z,11.1
2023-03-24T01:03:44.723Z,11.1
2023-03-24T01:06:32.967Z,11.1
2023-03-24T01:09:20.747Z,11.1
2023-03-24T01:12:08.785Z,11.1
2023-03-24T01:14:56.753Z,11.1
2023-03-24T01:17:44.776Z,11.1
2023-03-24T01:20:32.702Z,11.1
2023-03-24T01:23:20.636Z,11.1
2023-03-24T01:26:08.616Z,11.1
2023-03-24T01:28:56.489Z,11.1
2023-03-24T01:31:44.596Z,11.1
2023-03-24T01:34:32.531Z,11.2
2023-03-24T01:37:20.321Z,11.2
2023-03-24T01:40:08.172Z,11.2
2023-03-24T01:42:55.932Z,11.2
2023-03-24T01:45:43.838Z,11.2
2023-03-24T01:48:31.884Z,11.2
2023-03-24T01:51:19.796Z,11.3
2023-03-24T01:54:07.648Z,11.3
2023-03-24T01:56:55.861Z,11.3
2023-03-24T01:59:43.823Z,11.3
2023-03-24T02:02:32.061Z,11.3
2023-03-24T02:05:20.065Z,11.4
2023-03-24T02:08:08.110Z,11.3
2023-03-24T02:10:55.971Z,11.3
2023-03-24T02:13:43.971Z,11.3
2023-03-24T02:16:31.861Z,11.1
2023-03-24T02:19:20.000Z,11.1
2023-03-24T02:22:07.867Z,11.1
2023-03-24T02:24:55.911Z,11
2023-03-24T02:27:43.744Z,11
2023-03-24T02:30:31.627Z,11
2023-03-24T02:33:19.570Z,10.9
2023-03-24T02:36:07.535Z,10.9
2023-03-24T02:38:55.577Z,10.9
2023-03-24T02:41:43.531Z,10.9
2023-03-24T02:44:31.467Z,10.9
2023-03-24T02:47:19.264Z,10.9
2023-03-24T02:50:07.045Z,10.9
2023-03-24T02:52:56.505Z,10.9
2023-03-24T02:55:44.567Z,10.9
2023-03-24T02:58:32.661Z,10.9
2023-03-24T03:01:20.443Z,10.9
2023-03-24T03:04:08.444Z,11
2023-03-24T03:06:56.386Z,11
2023-03-24T03:09:44.273Z,11.1
2023-03-24T03:12:32.240Z,11.1
2023-03-24T03:15:20.199Z,11.3
2023-03-24T03:18:08.095Z,11.4
2023-03-24T03:20:56.227Z,11.5
2023-03-24T03:23:44.109Z,11.6
2023-03-24T03:26:31.875Z,11.7
2023-03-24T03:29:19.913Z,11.8
2023-03-24T03:32:08.078Z,12
2023-03-24T03:34:55.965Z,12.1
2023-03-24T03:37:45.396Z,12.2
2023-03-24T03:40:35.015Z,12.3
2023-03-24T03:43:22.964Z,12.3
2023-03-24T03:46:11.447Z,12.4
2023-03-24T03:48:59.643Z,12.5
2023-03-24T03:51:47.532Z,12.5
2023-03-24T03:54:35.472Z,12.5
2023-03-24T03:57:23.302Z,12.5
2023-03-24T04:00:11.388Z,12.5
2023-03-24T04:02:59.575Z,12.5
2023-03-24T04:05:47.772Z,12.5
2023-03-24T04:08:35.606Z,12.5
2023-03-24T04:11:23.492Z,12.4
2023-03-24T04:14:11.230Z,12.3
2023-03-24T04:16:59.238Z,12.2
2023-03-24T04:19:47.126Z,12.1
2023-03-24T04:22:34.945Z,12
2023-03-24T04:25:22.823Z,12
2023-03-24T04:28:10.862Z,12
2023-03-24T04:30:58.849Z,12
2023-03-24T04:33:46.779Z,12.1
2023-03-24T04:36:35.154Z,12.2
2023-03-24T04:39:23.011Z,12.2
2023-03-24T04:42:10.703Z,12.2
2023-03-24T04:44:58.604Z,12.2
2023-03-24T04:47:46.354Z,12.2
2023-03-24T04:50:34.384Z,12.2
2023-03-24T04:53:22.326Z,12.2
2023-03-24T04:56:10.453Z,12.2
2023-03-24T04:58:58.417Z,12.2
2023-03-24T05:01:46.607Z,12.1
2023-03-24T05:04:34.550Z,12
2023-03-24T05:07:22.586Z,11.9
2023-03-24T05:10:10.493Z,11.9
2023-03-24T05:12:58.384Z,11.7
2023-03-24T05:15:46.322Z,11.7
2023-03-24T05:18:34.506Z,11.5
2023-03-24T05:21:22.322Z,11.4
2023-03-24T05:24:10.194Z,11.3
2023-03-24T05:27:01.285Z,11.2
2023-03-24T05:29:49.250Z,11.1
2023-03-24T05:32:37.144Z,11
2023-03-24T05:35:25.014Z,11
2023-03-24T05:38:12.900Z,10.9
2023-03-24T05:41:00.876Z,10.8
2023-03-24T05:43:48.804Z,10.7
2023-03-24T05:46:36.825Z,10.6
2023-03-24T05:49:24.812Z,10.5
2023-03-24T05:52:12.584Z,10.4
2023-03-24T05:55:00.289Z,10.3
2023-03-24T05:57:48.076Z,10.3
2023-03-24T06:00:35.957Z,10.2
2023-03-24T06:03:24.174Z,10.2
2023-03-24T06:06:12.485Z,10.1
2023-03-24T06:09:00.410Z,10.2
2023-03-24T06:11:48.141Z,10.5
2023-03-24T06:14:35.974Z,11
2023-03-24T06:17:23.959Z,11.2
2023-03-24T06:20:11.925Z,11.1
2023-03-24T06:23:00.027Z,10.9
2023-03-24T06:25:48.116Z,10.7
2023-03-24T06:28:35.917Z,10.7
2023-03-24T06:31:24.000Z,10.6
2023-03-24T06:34:12.040Z,10.7
2023-03-24T06:36:59.887Z,10.9
2023-03-24T06:39:47.715Z,11.4
2023-03-24T06:42:35.712Z,11.8
2023-03-24T06:45:23.643Z,12.2
2023-03-24T06:48:11.459Z,12.7
2023-03-24T06:50:59.541Z,13.3
2023-03-24T06:53:47.500Z,14
2023-03-24T06:56:35.360Z,14.5
2023-03-24T06:59:23.426Z,14.5
2023-03-24T07:02:11.285Z,14.5
2023-03-24T07:04:59.245Z,14.6
2023-03-24T07:11:24.533Z,14.7
2023-03-24T07:14:12.428Z,14.9
2023-03-24T07:17:00.481Z,15.2
2023-03-24T07:19:48.338Z,15.4
2023-03-24T07:22:36.225Z,15.6
2023-03-24T07:25:24.337Z,15.8
2023-03-24T07:28:12.307Z,16.2
2023-03-24T07:31:08.725Z,16.4
2023-03-24T07:33:57.355Z,16.4
2023-03-24T07:36:49.124Z,16.4
2023-03-24T07:39:37.108Z,16.3
2023-03-24T07:42:25.230Z,16.6
2023-03-24T07:45:13.196Z,17.4
2023-03-24T07:48:01.168Z,18
2023-03-24T07:50:49.213Z,18
2023-03-24T07:53:37.099Z,17.8
2023-03-24T07:56:24.992Z,18.2
2023-03-24T07:59:13.154Z,18.4
2023-03-24T08:02:01.278Z,18.4
2023-03-24T08:04:49.306Z,18.4
2023-03-24T08:07:37.193Z,18.5
2023-03-24T08:10:25.152Z,18.1
2023-03-24T08:13:13.268Z,17.8
2023-03-24T08:16:01.543Z,17.8
2023-03-24T08:18:49.486Z,17.2
2023-03-24T08:21:37.182Z,16
2023-03-24T08:24:25.220Z,14.9
2023-03-24T08:27:13.024Z,14.3
2023-03-24T08:30:00.894Z,14
2023-03-24T08:32:48.911Z,13.6
2023-03-24T08:35:36.812Z,13.7
2023-03-24T08:38:24.695Z,14.7
2023-03-24T08:41:12.787Z,15.6
2023-03-24T08:44:00.674Z,16.2
2023-03-24T08:46:48.678Z,16.4
2023-03-24T08:49:36.808Z,16.7
2023-03-24T08:52:24.631Z,17.4
2023-03-24T08:55:12.518Z,18
2023-03-24T08:58:00.390Z,18
2023-03-24T09:00:48.344Z,17.6
2023-03-24T09:03:36.487Z,17.5
2023-03-24T09:06:25.006Z,17.2
2023-03-24T09:09:12.882Z,16.9
2023-03-24T09:12:00.761Z,16.6
2023-03-24T09:14:48.789Z,16.2
2023-03-24T09:17:36.680Z,15.6
2023-03-24T09:20:24.722Z,15.2
2023-03-24T09:23:12.742Z,15.1
2023-03-24T09:26:00.756Z,15.3
2023-03-24T09:28:48.630Z,15.2
2023-03-24T09:31:36.807Z,15.1
2023-03-24T09:34:24.860Z,15
2023-03-24T09:37:12.799Z,15
2023-03-24T09:40:00.769Z,14.7
2023-03-24T09:42:48.670Z,14.3
2023-03-24T09:45:36.464Z,13.9
2023-03-24T09:48:24.495Z,13.7
2023-03-24T09:51:12.300Z,13.7
2023-03-24T09:54:00.226Z,13.7
2023-03-24T09:56:50.881Z,13.7
2023-03-24T09:59:39.927Z,13.6
2023-03-24T10:02:27.774Z,13.5
2023-03-24T10:05:15.906Z,13.3
2023-03-24T10:08:03.786Z,13.6
2023-03-24T10:10:51.670Z,13.9
2023-03-24T10:13:39.788Z,14.1
2023-03-24T10:16:27.885Z,14.4
2023-03-24T10:19:15.945Z,14.5
2023-03-24T10:22:03.828Z,14.7
2023-03-24T10:24:51.508Z,14.9
2023-03-24T10:27:39.378Z,15.4
2023-03-24T10:30:27.269Z,16.1
2023-03-24T10:33:15.171Z,16.8
2023-03-24T10:36:03.967Z,17.4
2023-03-24T10:38:55.291Z,17.5
2023-03-24T10:41:43.229Z,17.2
2023-03-24T10:44:31.300Z,16.9
2023-03-24T10:47:19.238Z,16.8
2023-03-24T10:50:12.162Z,16.4
2023-03-24T10:53:03.548Z,16
2023-03-24T10:55:51.587Z,15.5
2023-03-24T10:58:39.715Z,15.4
2023-03-24T11:01:27.754Z,15.4
2023-03-24T11:04:16.077Z,15.4
2023-03-24T11:07:08.080Z,15.2
2023-03-24T11:09:55.860Z,14.9
2023-03-24T11:12:43.688Z,14.8
2023-03-24T11:15:48.080Z,14.8
2023-03-24T11:18:36.253Z,15
2023-03-24T11:21:24.366Z,15.4
2023-03-24T11:24:12.186Z,16.1
2023-03-24T11:27:00.091Z,16.9
2023-03-24T11:29:48.050Z,17.5
2023-03-24T11:32:35.837Z,17.4
2023-03-24T11:35:32.214Z,16.8
2023-03-24T11:38:29.908Z,16.3
2023-03-24T11:41:17.818Z,16
2023-03-24T11:44:05.859Z,16.1
2023-03-24T11:46:54.203Z,16.4
2023-03-24T11:49:41.943Z,16.6
2023-03-24T11:52:29.943Z,16.7
2023-03-24T11:55:17.899Z,16.9
2023-03-24T11:58:05.901Z,16.8
2023-03-24T12:00:54.301Z,16.7
2023-03-24T12:03:42.386Z,16.4
2023-03-24T12:06:30.228Z,16.1
2023-03-24T12:09:18.113Z,16
2023-03-24T12:12:07.741Z,16
2023-03-24T12:14:57.207Z,16.1
2023-03-24T12:17:45.025Z,16.3
2023-03-24T12:20:32.900Z,16.4
2023-03-24T12:23:20.666Z,16.4
2023-03-24T12:26:08.601Z,16.5
2023-03-24T12:28:56.515Z,16.7
2023-03-24T12:31:44.435Z,17
2023-03-24T12:34:32.358Z,17.1
2023-03-24T12:37:20.239Z,17.2
2023-03-24T12:40:08.035Z,17.3
2023-03-24T12:42:55.820Z,17.1
2023-03-24T12:45:43.699Z,16.5
2023-03-24T12:48:32.040Z,16
2023-03-24T12:51:19.817Z,15.5
2023-03-24T12:54:07.703Z,15.3
2023-03-24T12:56:55.565Z,15.6
2023-03-24T12:59:43.630Z,15.8
2023-03-24T13:02:31.682Z,15.6
2023-03-24T13:05:19.773Z,15.4
2023-03-24T13:08:07.801Z,15
2023-03-24T13:10:55.658Z,14.8
2023-03-24T13:13:43.469Z,14.6
2023-03-24T13:16:31.453Z,14.5
2023-03-24T13:19:19.470Z,14.4
2023-03-24T13:22:07.380Z,14.2
2023-03-24T13:24:55.147Z,14.1
2023-03-24T13:27:43.065Z,13.9
2023-03-24T13:30:30.854Z,13.4
2023-03-24T13:33:18.724Z,13.1
2023-03-24T13:36:06.922Z,13.1
2023-03-24T13:38:54.906Z,13.5
2023-03-24T13:41:44.341Z,14.2
2023-03-24T13:44:32.310Z,15
2023-03-24T13:47:20.196Z,15.7
2023-03-24T13:50:08.070Z,16
2023-03-24T13:52:56.018Z,15.8
2023-03-24T13:55:43.881Z,15.7
2023-03-24T13:58:31.741Z,15.6
2023-03-24T14:01:19.489Z,15.4
2023-03-24T14:04:07.513Z,14.9
2023-03-24T14:06:55.350Z,14.2
2023-03-24T14:09:43.409Z,13.5
2023-03-24T14:12:32.727Z,13.1
2023-03-24T14:15:20.546Z,12.7
2023-03-24T14:18:08.604Z,12.5
2023-03-24T14:20:56.655Z,12.9
2023-03-24T14:23:44.649Z,13.5
2023-03-24T14:26:32.556Z,14
2023-03-24T14:29:20.426Z,14.5
2023-03-24T14:32:17.440Z,14.5
2023-03-24T14:35:08.327Z,14.1
2023-03-24T14:37:56.268Z,13.6
2023-03-24T14:40:53.309Z,13.1
2023-03-24T14:43:41.122Z,13.1
2023-03-24T14:46:29.111Z,13.6
2023-03-24T14:49:16.928Z,13.9
2023-03-24T14:52:05.228Z,14.2
2023-03-24T14:54:52.902Z,14.6
2023-03-24T14:57:40.672Z,14.7
2023-03-24T15:00:28.641Z,14.6
2023-03-24T15:03:16.704Z,14.4
2023-03-24T15:06:04.741Z,14
2023-03-24T15:08:52.578Z,13.6
2023-03-24T15:11:40.312Z,13.4
2023-03-24T15:14:28.294Z,13.2
2023-03-24T15:17:16.403Z,13.1
2023-03-24T15:20:04.191Z,12.9
2023-03-24T15:22:52.155Z,12.7
2023-03-24T15:25:40.096Z,12.5
2023-03-24T15:28:27.985Z,12.4
2023-03-24T15:31:16.511Z,12.3
2023-03-24T15:34:04.561Z,12.2
2023-03-24T15:36:52.559Z,12.2
2023-03-24T15:39:40.323Z,12.2
2023-03-24T15:42:28.083Z,12.1
2023-03-24T15:45:15.855Z,11.9
2023-03-24T15:48:03.821Z,11.7
2023-03-24T15:50:51.770Z,11.5
2023-03-24T15:53:39.723Z,11.4
2023-03-24T15:56:27.562Z,11.3
2023-03-24T15:59:15.546Z,11.2
2023-03-24T16:02:03.329Z,11.2
2023-03-24T16:04:57.280Z,11.2
2023-03-24T16:07:58.726Z,11.2
2023-03-24T16:10:46.708Z,11.1
2023-03-24T16:13:34.912Z,11.1
2023-03-24T16:16:22.855Z,11.1
2023-03-24T16:19:10.755Z,11.4
2023-03-24T16:21:58.748Z,11.9
2023-03-24T16:24:46.839Z,12.3
2023-03-24T16:27:34.770Z,12.4
2023-03-24T16:30:22.717Z,12.5
2023-03-24T16:33:10.571Z,12.6
2023-03-24T16:35:58.505Z,12.9
2023-03-24T16:38:46.468Z,13.1
2023-03-24T16:41:34.339Z,13.3
2023-03-24T16:44:22.290Z,13.3
2023-03-24T16:47:11.669Z,13.2
2023-03-24T16:49:59.811Z,13.1
2023-03-24T16:52:47.744Z,13
2023-03-24T16:55:35.679Z,12.9
2023-03-24T16:58:23.438Z,12.8
2023-03-24T17:01:11.403Z,12.7
2023-03-24T17:03:59.504Z,12.5
2023-03-24T17:06:47.438Z,12.5
2023-03-24T17:09:35.296Z,12.2
2023-03-24T17:12:23.251Z,12
2023-03-24T17:15:12.754Z,11.8
2023-03-24T17:18:00.684Z,11.7
2023-03-24T17:20:48.834Z,11.5
2023-03-24T17:23:37.192Z,11.5
2023-03-24T17:26:24.981Z,11.4
2023-03-24T17:29:13.118Z,11.3
2023-03-24T17:32:01.091Z,11.2
2023-03-24T17:34:50.683Z,11.1
2023-03-24T17:37:38.464Z,11.1
2023-03-24T17:40:26.351Z,11
2023-03-24T17:43:15.017Z,11
2023-03-24T17:46:02.788Z,10.9
2023-03-24T17:48:50.610Z,10.9
2023-03-24T17:51:38.663Z,10.8
2023-03-24T17:54:26.496Z,10.8
2023-03-24T17:57:14.407Z,10.7
2023-03-24T18:00:02.683Z,10.6
2023-03-24T18:02:50.898Z,10.6
2023-03-24T18:05:39.025Z,10.5
2023-03-24T18:08:26.993Z,10.4
2023-03-24T18:11:14.941Z,10.3
2023-03-24T18:14:02.901Z,10.2
2023-03-24T18:16:50.883Z,10.2
2023-03-24T18:19:38.944Z,10.2
2023-03-24T18:22:26.998Z,10.1
2023-03-24T18:25:14.919Z,10.1
2023-03-24T18:28:02.853Z,10.1
2023-03-24T18:30:51.206Z,10.1
2023-03-24T18:33:39.492Z,10.1
2023-03-24T18:36:27.584Z,10.1
2023-03-24T18:39:15.548Z,10.1
2023-03-24T18:42:03.454Z,10
2023-03-24T18:44:51.242Z,10
2023-03-24T18:47:39.147Z,10
2023-03-24T18:50:27.162Z,10
2023-03-24T18:53:14.997Z,10
2023-03-24T18:56:02.959Z,10
2023-03-24T18:58:51.629Z,10
2023-03-24T19:01:39.923Z,10
2023-03-24T19:04:27.860Z,10.1
2023-03-24T19:07:15.768Z,10.1
2023-03-24T19:10:04.161Z,10.2
2023-03-24T19:12:52.176Z,10.2
2023-03-24T19:15:40.137Z,10.2
2023-03-24T19:18:30.633Z,10.2
2023-03-24T19:21:18.618Z,10.2
2023-03-24T19:24:06.403Z,10.2
2023-03-24T19:26:54.543Z,10.2
2023-03-24T19:29:42.564Z,10.2
2023-03-24T19:32:30.655Z,10.2
2023-03-24T19:35:18.605Z,10.2
2023-03-24T19:38:06.458Z,10.2
2023-03-24T19:40:54.439Z,10.2
2023-03-24T19:43:42.319Z,10.2
2023-03-24T19:46:30.488Z,10
2023-03-24T19:49:18.630Z,9.9
2023-03-24T19:52:06.440Z,9.8
2023-03-24T19:54:54.220Z,9.8
2023-03-24T19:57:42.021Z,9.8
2023-03-24T20:00:29.959Z,9.8
2023-03-24T20:03:18.215Z,9.8
2023-03-24T20:06:06.377Z,9.9
2023-03-24T20:08:54.416Z,9.9
2023-03-24T20:11:42.274Z,10
2023-03-24T20:14:30.235Z,9.9
2023-03-24T20:17:18.170Z,9.8
2023-03-24T20:20:06.299Z,9.8
2023-03-24T20:22:54.105Z,9.8
2023-03-24T20:25:41.949Z,9.8
2023-03-24T20:28:30.029Z,9.8
2023-03-24T20:31:17.989Z,9.8
2023-03-24T20:34:06.101Z,9.9
2023-03-24T20:36:54.377Z,9.9
2023-03-24T20:39:42.210Z,9.9
2023-03-24T20:42:30.009Z,9.9
2023-03-24T20:45:17.845Z,9.8
2023-03-24T20:48:05.829Z,9.8
2023-03-24T20:50:53.974Z,9.8
2023-03-24T20:53:41.868Z,9.8
2023-03-24T20:56:29.815Z,9.7
2023-03-24T20:59:17.787Z,9.7
2023-03-24T21:02:05.833Z,9.6
2023-03-24T21:04:53.857Z,9.6
2023-03-24T21:07:41.795Z,9.6
2023-03-24T21:10:29.760Z,9.6
2023-03-24T21:13:22.280Z,9.5
2023-03-24T21:16:10.125Z,9.5
2023-03-24T21:18:57.994Z,9.4
2023-03-24T21:21:45.834Z,9.4
2023-03-24T21:24:33.693Z,9.4
2023-03-24T21:27:21.841Z,9.4
2023-03-24T21:30:09.693Z,9.4
2023-03-24T21:32:57.685Z,9.4
2023-03-24T21:35:45.640Z,9.4
2023-03-24T21:38:33.711Z,9.4
2023-03-24T21:41:21.549Z,9.4
2023-03-24T21:44:09.476Z,9.4
2023-03-24T21:46:57.415Z,9.4
2023-03-24T21:49:45.287Z,9.4
2023-03-24T21:52:33.414Z,9.4
2023-03-24T21:55:21.393Z,9.4
2023-03-24T21:58:09.317Z,9.4
2023-03-24T22:00:57.277Z,9.4
2023-03-24T22:03:45.161Z,9.4
2023-03-24T22:06:33.024Z,9.4
2023-03-24T22:09:20.908Z,9.4
2023-03-24T22:12:08.796Z,9.4
2023-03-24T22:14:56.708Z,9.5
2023-03-24T22:17:44.723Z,9.5
2023-03-24T22:20:32.762Z,9.5
2023-03-24T22:23:20.622Z,9.6
2023-03-24T22:26:08.580Z,9.6
2023-03-24T22:28:56.367Z,9.6
2023-03-24T22:31:44.541Z,9.6
2023-03-24T22:34:32.527Z,9.6
2023-03-24T22:37:20.479Z,9.5
2023-03-24T22:40:08.310Z,9.4
2023-03-24T22:42:56.197Z,9
2023-03-24T22:45:44.136Z,8.8
2023-03-24T22:48:32.141Z,8.6
2023-03-24T22:51:20.082Z,8.5
2023-03-24T22:54:08.109Z,8.5
2023-03-24T22:56:56.197Z,8.5
2023-03-24T22:59:44.151Z,8.5
2023-03-24T23:02:38.581Z,8.5
2023-03-24T23:05:26.947Z,8.5
2023-03-24T23:08:14.960Z,8.6
2023-03-24T23:11:03.393Z,8.6
2023-03-24T23:13:51.145Z,8.6
2023-03-24T23:16:39.214Z,8.7
2023-03-24T23:19:27.562Z,8.8
2023-03-24T23:22:15.503Z,8.8
2023-03-24T23:25:03.407Z,8.9
2023-03-24T23:27:51.279Z,8.9
2023-03-24T23:30:39.262Z,8.9
2023-03-24T23:33:27.466Z,8.9
2023-03-24T23:36:17.812Z,9
2023-03-24T23:39:07.370Z,9
2023-03-24T23:41:55.332Z,9
2023-03-24T23:44:43.401Z,9
2023-03-24T23:47:31.242Z,9
2023-03-24T23:50:19.365Z,9
2023-03-24T23:53:07.314Z,8.9
2023-03-24T23:55:55.304Z,8.9
2023-03-24T23:58:43.157Z,8.8
